sensor_id;sensor_type;location;lat;lon;timestamp;P1;durP1;ratioP1;P2;durP2;ratioP2
53207;SDS011;39093;52.788;6.940;2024-01-06T00:00:23;16.30;;;11.90;;
53207;SDS011;39093;52.788;6.940;2024-01-06T00:02:52;13.68;;;11.80;;
53207;SDS011;39093;52.788;6.940;2024-01-06T00:05:19;15.07;;;11.88;;
53207;SDS011;39093;52.788;6.940;2024-01-06T00:07:46;16.40;;;13.73;;
53207;SDS011;39093;52.788;6.940;2024-01-06T00:10:13;17.92;;;13.68;;
53207;SDS011;39093;52.788;6.940;2024-01-06T00:12:43;14.13;;;11.48;;
53207;SDS011;39093;52.788;6.940;2024-01-06T00:15:10;16.25;;;13.05;;
53207;SDS011;39093;52.788;6.940;2024-01-06T00:17:37;15.05;;;12.23;;
53207;SDS011;39093;52.788;6.940;2024-01-06T00:20:05;14.77;;;12.45;;
53207;SDS011;39093;52.788;6.940;2024-01-06T00:22:33;16.33;;;13.55;;
53207;SDS011;39093;52.788;6.940;2024-01-06T00:25:00;16.00;;;14.30;;
53207;SDS011;39093;52.788;6.940;2024-01-06T00:27:27;17.70;;;13.75;;
53207;SDS011;39093;52.788;6.940;2024-01-06T00:29:54;18.15;;;15.13;;
53207;SDS011;39093;52.788;6.940;2024-01-06T00:32:21;21.65;;;16.10;;
53207;SDS011;39093;52.788;6.940;2024-01-06T00:34:48;17.70;;;14.93;;
53207;SDS011;39093;52.788;6.940;2024-01-06T00:37:15;17.27;;;14.18;;
53207;SDS011;39093;52.788;6.940;2024-01-06T00:39:42;18.35;;;15.25;;
53207;SDS011;39093;52.788;6.940;2024-01-06T00:42:09;18.10;;;15.38;;
53207;SDS011;39093;52.788;6.940;2024-01-06T00:44:36;18.92;;;15.93;;
53207;SDS011;39093;52.788;6.940;2024-01-06T00:47:03;19.35;;;16.35;;
53207;SDS011;39093;52.788;6.940;2024-01-06T00:49:30;20.90;;;16.08;;
53207;SDS011;39093;52.788;6.940;2024-01-06T00:51:58;23.23;;;19.05;;
53207;SDS011;39093;52.788;6.940;2024-01-06T00:54:25;26.63;;;19.80;;
53207;SDS011;39093;52.788;6.940;2024-01-06T00:56:52;24.08;;;18.00;;
53207;SDS011;39093;52.788;6.940;2024-01-06T00:59:22;20.85;;;17.67;;
53207;SDS011;39093;52.788;6.940;2024-01-06T01:01:49;20.25;;;17.58;;
53207;SDS011;39093;52.788;6.940;2024-01-06T01:04:16;21.33;;;18.15;;
53207;SDS011;39093;52.788;6.940;2024-01-06T01:06:43;21.70;;;17.60;;
53207;SDS011;39093;52.788;6.940;2024-01-06T01:09:10;25.45;;;19.23;;
53207;SDS011;39093;52.788;6.940;2024-01-06T01:11:40;23.52;;;18.73;;
53207;SDS011;39093;52.788;6.940;2024-01-06T01:14:07;20.65;;;18.02;;
53207;SDS011;39093;52.788;6.940;2024-01-06T01:16:34;24.70;;;19.05;;
53207;SDS011;39093;52.788;6.940;2024-01-06T01:19:01;22.65;;;18.35;;
53207;SDS011;39093;52.788;6.940;2024-01-06T01:21:28;23.92;;;19.83;;
53207;SDS011;39093;52.788;6.940;2024-01-06T01:23:55;23.17;;;18.80;;
53207;SDS011;39093;52.788;6.940;2024-01-06T01:26:22;24.38;;;18.88;;
53207;SDS011;39093;52.788;6.940;2024-01-06T01:28:49;25.52;;;19.20;;
53207;SDS011;39093;52.788;6.940;2024-01-06T01:31:16;26.88;;;21.52;;
53207;SDS011;39093;52.788;6.940;2024-01-06T01:33:43;24.15;;;19.83;;
53207;SDS011;39093;52.788;6.940;2024-01-06T01:36:10;28.70;;;21.70;;
53207;SDS011;39093;52.788;6.940;2024-01-06T01:38:38;32.10;;;22.50;;
53207;SDS011;39093;52.788;6.940;2024-01-06T01:41:05;30.67;;;22.52;;
53207;SDS011;39093;52.788;6.940;2024-01-06T01:43:32;32.63;;;24.52;;
53207;SDS011;39093;52.788;6.940;2024-01-06T01:45:59;34.47;;;23.77;;
53207;SDS011;39093;52.788;6.940;2024-01-06T01:48:27;34.88;;;26.35;;
53207;SDS011;39093;52.788;6.940;2024-01-06T01:50:55;39.85;;;27.10;;
53207;SDS011;39093;52.788;6.940;2024-01-06T01:53:22;36.05;;;26.40;;
53207;SDS011;39093;52.788;6.940;2024-01-06T01:55:51;34.90;;;25.08;;
53207;SDS011;39093;52.788;6.940;2024-01-06T01:58:19;32.10;;;23.42;;
53207;SDS011;39093;52.788;6.940;2024-01-06T02:00:46;29.35;;;22.40;;
53207;SDS011;39093;52.788;6.940;2024-01-06T02:03:13;25.92;;;21.42;;
53207;SDS011;39093;52.788;6.940;2024-01-06T02:05:41;29.40;;;22.20;;
53207;SDS011;39093;52.788;6.940;2024-01-06T02:08:08;30.42;;;22.42;;
53207;SDS011;39093;52.788;6.940;2024-01-06T02:10:35;31.48;;;23.55;;
53207;SDS011;39093;52.788;6.940;2024-01-06T02:13:11;34.13;;;23.52;;
53207;SDS011;39093;52.788;6.940;2024-01-06T02:15:39;29.38;;;21.67;;
53207;SDS011;39093;52.788;6.940;2024-01-06T02:18:06;27.20;;;21.20;;
53207;SDS011;39093;52.788;6.940;2024-01-06T02:20:34;25.67;;;21.00;;
53207;SDS011;39093;52.788;6.940;2024-01-06T02:23:01;26.27;;;19.83;;
53207;SDS011;39093;52.788;6.940;2024-01-06T02:25:28;25.52;;;19.55;;
53207;SDS011;39093;52.788;6.940;2024-01-06T02:27:55;27.40;;;20.73;;
53207;SDS011;39093;52.788;6.940;2024-01-06T02:30:23;23.27;;;18.10;;
53207;SDS011;39093;52.788;6.940;2024-01-06T02:32:50;28.30;;;19.80;;
53207;SDS011;39093;52.788;6.940;2024-01-06T02:35:17;23.75;;;19.83;;
53207;SDS011;39093;52.788;6.940;2024-01-06T02:37:44;26.70;;;20.35;;
53207;SDS011;39093;52.788;6.940;2024-01-06T02:40:11;27.25;;;21.73;;
53207;SDS011;39093;52.788;6.940;2024-01-06T02:42:39;32.45;;;22.80;;
53207;SDS011;39093;52.788;6.940;2024-01-06T02:45:07;29.95;;;22.65;;
53207;SDS011;39093;52.788;6.940;2024-01-06T02:47:35;29.65;;;22.98;;
53207;SDS011;39093;52.788;6.940;2024-01-06T02:50:03;31.27;;;23.52;;
53207;SDS011;39093;52.788;6.940;2024-01-06T02:52:30;32.85;;;24.45;;
53207;SDS011;39093;52.788;6.940;2024-01-06T02:54:57;34.28;;;24.08;;
53207;SDS011;39093;52.788;6.940;2024-01-06T02:57:25;35.40;;;25.60;;
53207;SDS011;39093;52.788;6.940;2024-01-06T02:59:52;34.25;;;24.05;;
53207;SDS011;39093;52.788;6.940;2024-01-06T03:02:19;34.70;;;24.30;;
53207;SDS011;39093;52.788;6.940;2024-01-06T03:04:46;32.67;;;23.63;;
53207;SDS011;39093;52.788;6.940;2024-01-06T03:07:13;38.83;;;23.63;;
53207;SDS011;39093;52.788;6.940;2024-01-06T03:09:40;35.60;;;23.38;;
53207;SDS011;39093;52.788;6.940;2024-01-06T03:12:07;36.67;;;24.88;;
53207;SDS011;39093;52.788;6.940;2024-01-06T03:14:35;38.78;;;24.17;;
53207;SDS011;39093;52.788;6.940;2024-01-06T03:17:02;38.03;;;24.77;;
53207;SDS011;39093;52.788;6.940;2024-01-06T03:19:30;39.33;;;24.48;;
53207;SDS011;39093;52.788;6.940;2024-01-06T03:21:57;36.30;;;23.13;;
53207;SDS011;39093;52.788;6.940;2024-01-06T03:24:25;33.30;;;22.13;;
53207;SDS011;39093;52.788;6.940;2024-01-06T03:26:53;30.27;;;21.48;;
53207;SDS011;39093;52.788;6.940;2024-01-06T03:29:20;31.45;;;20.63;;
53207;SDS011;39093;52.788;6.940;2024-01-06T03:31:47;29.73;;;21.15;;
53207;SDS011;39093;52.788;6.940;2024-01-06T03:34:14;33.40;;;21.77;;
53207;SDS011;39093;52.788;6.940;2024-01-06T03:36:41;34.00;;;22.85;;
53207;SDS011;39093;52.788;6.940;2024-01-06T03:39:08;30.58;;;22.10;;
53207;SDS011;39093;52.788;6.940;2024-01-06T03:41:37;29.00;;;21.45;;
53207;SDS011;39093;52.788;6.940;2024-01-06T03:44:04;30.83;;;21.50;;
53207;SDS011;39093;52.788;6.940;2024-01-06T03:46:32;27.60;;;20.45;;
53207;SDS011;39093;52.788;6.940;2024-01-06T03:49:02;29.48;;;20.35;;
53207;SDS011;39093;52.788;6.940;2024-01-06T03:51:29;29.35;;;21.30;;
53207;SDS011;39093;52.788;6.940;2024-01-06T03:53:56;28.73;;;19.58;;
53207;SDS011;39093;52.788;6.940;2024-01-06T03:56:23;27.67;;;19.50;;
53207;SDS011;39093;52.788;6.940;2024-01-06T03:58:50;30.17;;;19.90;;
53207;SDS011;39093;52.788;6.940;2024-01-06T04:01:17;28.98;;;19.33;;
53207;SDS011;39093;52.788;6.940;2024-01-06T04:03:44;26.95;;;19.52;;
53207;SDS011;39093;52.788;6.940;2024-01-06T04:06:11;27.08;;;18.52;;
53207;SDS011;39093;52.788;6.940;2024-01-06T04:08:39;26.67;;;18.40;;
53207;SDS011;39093;52.788;6.940;2024-01-06T04:11:07;32.78;;;19.40;;
53207;SDS011;39093;52.788;6.940;2024-01-06T04:13:34;22.25;;;17.05;;
53207;SDS011;39093;52.788;6.940;2024-01-06T04:16:01;21.45;;;16.70;;
53207;SDS011;39093;52.788;6.940;2024-01-06T04:18:29;18.65;;;15.02;;
53207;SDS011;39093;52.788;6.940;2024-01-06T04:20:56;21.80;;;17.58;;
53207;SDS011;39093;52.788;6.940;2024-01-06T04:23:23;24.88;;;16.88;;
53207;SDS011;39093;52.788;6.940;2024-01-06T04:25:51;22.08;;;16.67;;
53207;SDS011;39093;52.788;6.940;2024-01-06T04:28:18;29.15;;;18.05;;
53207;SDS011;39093;52.788;6.940;2024-01-06T04:30:45;27.77;;;20.10;;
53207;SDS011;39093;52.788;6.940;2024-01-06T04:33:14;27.10;;;18.45;;
53207;SDS011;39093;52.788;6.940;2024-01-06T04:35:41;25.15;;;17.42;;
53207;SDS011;39093;52.788;6.940;2024-01-06T04:38:08;26.40;;;19.35;;
53207;SDS011;39093;52.788;6.940;2024-01-06T04:40:35;22.42;;;18.58;;
53207;SDS011;39093;52.788;6.940;2024-01-06T04:43:02;26.63;;;19.30;;
53207;SDS011;39093;52.788;6.940;2024-01-06T04:45:30;26.83;;;18.58;;
53207;SDS011;39093;52.788;6.940;2024-01-06T04:47:57;32.70;;;20.20;;
53207;SDS011;39093;52.788;6.940;2024-01-06T04:50:24;30.83;;;21.23;;
53207;SDS011;39093;52.788;6.940;2024-01-06T04:52:51;32.88;;;21.50;;
53207;SDS011;39093;52.788;6.940;2024-01-06T04:55:18;30.13;;;20.25;;
53207;SDS011;39093;52.788;6.940;2024-01-06T04:57:44;26.83;;;19.90;;
53207;SDS011;39093;52.788;6.940;2024-01-06T05:00:12;28.40;;;20.63;;
53207;SDS011;39093;52.788;6.940;2024-01-06T05:02:39;28.20;;;20.50;;
53207;SDS011;39093;52.788;6.940;2024-01-06T05:05:06;32.53;;;20.25;;
53207;SDS011;39093;52.788;6.940;2024-01-06T05:07:33;25.15;;;19.70;;
53207;SDS011;39093;52.788;6.940;2024-01-06T05:10:00;24.60;;;18.60;;
53207;SDS011;39093;52.788;6.940;2024-01-06T05:12:26;24.80;;;19.25;;
53207;SDS011;39093;52.788;6.940;2024-01-06T05:14:53;32.97;;;20.95;;
53207;SDS011;39093;52.788;6.940;2024-01-06T05:17:23;30.60;;;21.48;;
53207;SDS011;39093;52.788;6.940;2024-01-06T05:19:53;26.83;;;20.40;;
53207;SDS011;39093;52.788;6.940;2024-01-06T05:22:21;30.58;;;20.40;;
53207;SDS011;39093;52.788;6.940;2024-01-06T05:24:48;34.25;;;22.05;;
53207;SDS011;39093;52.788;6.940;2024-01-06T05:27:18;32.38;;;22.02;;
53207;SDS011;39093;52.788;6.940;2024-01-06T05:29:45;34.13;;;22.45;;
53207;SDS011;39093;52.788;6.940;2024-01-06T05:32:12;35.30;;;21.55;;
53207;SDS011;39093;52.788;6.940;2024-01-06T05:34:39;31.10;;;21.25;;
53207;SDS011;39093;52.788;6.940;2024-01-06T05:37:06;34.47;;;21.63;;
53207;SDS011;39093;52.788;6.940;2024-01-06T05:39:33;30.15;;;20.08;;
53207;SDS011;39093;52.788;6.940;2024-01-06T05:42:00;32.70;;;21.23;;
53207;SDS011;39093;52.788;6.940;2024-01-06T05:44:26;36.45;;;21.10;;
53207;SDS011;39093;52.788;6.940;2024-01-06T05:46:54;39.40;;;22.60;;
53207;SDS011;39093;52.788;6.940;2024-01-06T05:49:21;34.28;;;21.98;;
53207;SDS011;39093;52.788;6.940;2024-01-06T05:51:48;38.20;;;22.45;;
53207;SDS011;39093;52.788;6.940;2024-01-06T05:54:15;39.40;;;23.52;;
53207;SDS011;39093;52.788;6.940;2024-01-06T05:56:42;38.95;;;22.92;;
53207;SDS011;39093;52.788;6.940;2024-01-06T05:59:09;30.77;;;22.15;;
53207;SDS011;39093;52.788;6.940;2024-01-06T06:01:36;38.67;;;23.40;;
53207;SDS011;39093;52.788;6.940;2024-01-06T06:04:03;36.10;;;22.90;;
53207;SDS011;39093;52.788;6.940;2024-01-06T06:06:30;37.97;;;23.00;;
53207;SDS011;39093;52.788;6.940;2024-01-06T06:08:57;42.17;;;23.60;;
53207;SDS011;39093;52.788;6.940;2024-01-06T06:11:24;33.03;;;21.23;;
53207;SDS011;39093;52.788;6.940;2024-01-06T06:13:51;38.35;;;22.83;;
53207;SDS011;39093;52.788;6.940;2024-01-06T06:16:18;39.97;;;22.58;;
53207;SDS011;39093;52.788;6.940;2024-01-06T06:18:45;42.72;;;22.90;;
53207;SDS011;39093;52.788;6.940;2024-01-06T06:21:12;34.88;;;20.67;;
53207;SDS011;39093;52.788;6.940;2024-01-06T06:23:39;35.60;;;20.95;;
53207;SDS011;39093;52.788;6.940;2024-01-06T06:26:06;31.50;;;21.33;;
53207;SDS011;39093;52.788;6.940;2024-01-06T06:28:34;34.88;;;22.08;;
53207;SDS011;39093;52.788;6.940;2024-01-06T06:31:01;37.72;;;22.55;;
53207;SDS011;39093;52.788;6.940;2024-01-06T06:33:29;40.67;;;20.63;;
53207;SDS011;39093;52.788;6.940;2024-01-06T06:35:56;31.05;;;20.40;;
53207;SDS011;39093;52.788;6.940;2024-01-06T06:38:24;39.47;;;22.05;;
53207;SDS011;39093;52.788;6.940;2024-01-06T06:40:56;41.53;;;21.77;;
53207;SDS011;39093;52.788;6.940;2024-01-06T06:43:22;39.42;;;22.83;;
53207;SDS011;39093;52.788;6.940;2024-01-06T06:45:49;38.70;;;23.85;;
53207;SDS011;39093;52.788;6.940;2024-01-06T06:48:16;33.38;;;20.52;;
53207;SDS011;39093;52.788;6.940;2024-01-06T06:50:44;36.35;;;21.20;;
53207;SDS011;39093;52.788;6.940;2024-01-06T06:53:10;38.35;;;21.15;;
53207;SDS011;39093;52.788;6.940;2024-01-06T06:55:39;35.95;;;22.88;;
53207;SDS011;39093;52.788;6.940;2024-01-06T06:58:07;37.80;;;22.85;;
53207;SDS011;39093;52.788;6.940;2024-01-06T07:00:34;32.83;;;23.08;;
53207;SDS011;39093;52.788;6.940;2024-01-06T07:03:02;35.00;;;22.08;;
53207;SDS011;39093;52.788;6.940;2024-01-06T07:05:29;32.95;;;20.92;;
53207;SDS011;39093;52.788;6.940;2024-01-06T07:07:56;38.78;;;22.02;;
53207;SDS011;39093;52.788;6.940;2024-01-06T07:10:26;36.17;;;21.58;;
53207;SDS011;39093;52.788;6.940;2024-01-06T07:12:53;31.85;;;21.05;;
53207;SDS011;39093;52.788;6.940;2024-01-06T07:15:20;32.53;;;21.45;;
53207;SDS011;39093;52.788;6.940;2024-01-06T07:17:47;33.95;;;21.17;;
53207;SDS011;39093;52.788;6.940;2024-01-06T07:20:14;34.17;;;21.92;;
53207;SDS011;39093;52.788;6.940;2024-01-06T07:22:41;32.47;;;20.77;;
53207;SDS011;39093;52.788;6.940;2024-01-06T07:25:08;34.35;;;22.13;;
53207;SDS011;39093;52.788;6.940;2024-01-06T07:27:35;37.38;;;22.42;;
53207;SDS011;39093;52.788;6.940;2024-01-06T07:30:02;35.90;;;21.30;;
53207;SDS011;39093;52.788;6.940;2024-01-06T07:32:29;29.63;;;20.58;;
53207;SDS011;39093;52.788;6.940;2024-01-06T07:35:04;31.60;;;19.95;;
53207;SDS011;39093;52.788;6.940;2024-01-06T07:37:33;30.67;;;20.45;;
53207;SDS011;39093;52.788;6.940;2024-01-06T07:40:00;29.42;;;20.20;;
53207;SDS011;39093;52.788;6.940;2024-01-06T07:42:27;27.90;;;19.77;;
53207;SDS011;39093;52.788;6.940;2024-01-06T07:44:54;28.70;;;20.70;;
53207;SDS011;39093;52.788;6.940;2024-01-06T07:47:21;25.13;;;18.73;;
53207;SDS011;39093;52.788;6.940;2024-01-06T07:49:48;23.67;;;18.85;;
53207;SDS011;39093;52.788;6.940;2024-01-06T07:52:15;24.83;;;17.35;;
53207;SDS011;39093;52.788;6.940;2024-01-06T07:54:43;24.10;;;18.88;;
53207;SDS011;39093;52.788;6.940;2024-01-06T07:57:10;25.42;;;19.08;;
53207;SDS011;39093;52.788;6.940;2024-01-06T07:59:38;24.83;;;19.55;;
53207;SDS011;39093;52.788;6.940;2024-01-06T08:02:05;24.80;;;18.67;;
53207;SDS011;39093;52.788;6.940;2024-01-06T08:04:32;24.50;;;19.52;;
53207;SDS011;39093;52.788;6.940;2024-01-06T08:06:59;24.30;;;18.95;;
53207;SDS011;39093;52.788;6.940;2024-01-06T08:09:26;25.13;;;19.52;;
53207;SDS011;39093;52.788;6.940;2024-01-06T08:11:53;24.27;;;18.75;;
53207;SDS011;39093;52.788;6.940;2024-01-06T08:14:20;26.50;;;20.52;;
53207;SDS011;39093;52.788;6.940;2024-01-06T08:16:47;26.48;;;20.23;;
53207;SDS011;39093;52.788;6.940;2024-01-06T08:19:14;28.52;;;21.45;;
53207;SDS011;39093;52.788;6.940;2024-01-06T08:21:41;26.15;;;19.40;;
53207;SDS011;39093;52.788;6.940;2024-01-06T08:24:08;27.20;;;20.25;;
53207;SDS011;39093;52.788;6.940;2024-01-06T08:26:35;27.70;;;20.30;;
53207;SDS011;39093;52.788;6.940;2024-01-06T08:29:02;30.30;;;21.73;;
53207;SDS011;39093;52.788;6.940;2024-01-06T08:31:29;25.73;;;20.25;;
53207;SDS011;39093;52.788;6.940;2024-01-06T08:33:56;26.25;;;19.98;;
53207;SDS011;39093;52.788;6.940;2024-01-06T08:36:24;27.15;;;20.77;;
53207;SDS011;39093;52.788;6.940;2024-01-06T08:38:51;29.65;;;21.20;;
53207;SDS011;39093;52.788;6.940;2024-01-06T08:41:18;28.98;;;20.80;;
53207;SDS011;39093;52.788;6.940;2024-01-06T08:43:45;25.95;;;20.13;;
53207;SDS011;39093;52.788;6.940;2024-01-06T08:46:12;22.23;;;18.92;;
53207;SDS011;39093;52.788;6.940;2024-01-06T08:48:39;24.02;;;19.08;;
53207;SDS011;39093;52.788;6.940;2024-01-06T08:51:07;24.67;;;19.00;;
53207;SDS011;39093;52.788;6.940;2024-01-06T08:53:33;22.85;;;19.10;;
53207;SDS011;39093;52.788;6.940;2024-01-06T08:56:00;25.83;;;18.85;;
53207;SDS011;39093;52.788;6.940;2024-01-06T08:58:27;24.30;;;20.10;;
53207;SDS011;39093;52.788;6.940;2024-01-06T09:00:54;25.05;;;19.73;;
53207;SDS011;39093;52.788;6.940;2024-01-06T09:03:21;24.92;;;19.25;;
53207;SDS011;39093;52.788;6.940;2024-01-06T09:05:53;23.65;;;19.60;;
53207;SDS011;39093;52.788;6.940;2024-01-06T09:08:26;25.77;;;19.27;;
53207;SDS011;39093;52.788;6.940;2024-01-06T09:10:54;25.08;;;19.20;;
53207;SDS011;39093;52.788;6.940;2024-01-06T09:13:23;25.67;;;18.73;;
53207;SDS011;39093;52.788;6.940;2024-01-06T09:15:51;26.13;;;20.27;;
53207;SDS011;39093;52.788;6.940;2024-01-06T09:18:18;26.13;;;19.05;;
53207;SDS011;39093;52.788;6.940;2024-01-06T09:20:45;22.05;;;18.13;;
53207;SDS011;39093;52.788;6.940;2024-01-06T09:23:15;24.02;;;18.75;;
53207;SDS011;39093;52.788;6.940;2024-01-06T09:25:42;23.95;;;18.17;;
53207;SDS011;39093;52.788;6.940;2024-01-06T09:28:09;21.08;;;17.75;;
53207;SDS011;39093;52.788;6.940;2024-01-06T09:30:37;22.80;;;18.20;;
53207;SDS011;39093;52.788;6.940;2024-01-06T09:33:05;24.92;;;18.45;;
53207;SDS011;39093;52.788;6.940;2024-01-06T09:35:32;24.90;;;18.42;;
53207;SDS011;39093;52.788;6.940;2024-01-06T09:37:59;24.13;;;18.75;;
53207;SDS011;39093;52.788;6.940;2024-01-06T09:40:26;23.10;;;18.33;;
53207;SDS011;39093;52.788;6.940;2024-01-06T09:42:53;21.60;;;18.45;;
53207;SDS011;39093;52.788;6.940;2024-01-06T09:45:20;22.38;;;18.33;;
53207;SDS011;39093;52.788;6.940;2024-01-06T09:47:49;23.23;;;18.15;;
53207;SDS011;39093;52.788;6.940;2024-01-06T09:50:18;23.58;;;19.77;;
53207;SDS011;39093;52.788;6.940;2024-01-06T09:52:46;23.70;;;19.38;;
53207;SDS011;39093;52.788;6.940;2024-01-06T09:55:30;23.42;;;18.08;;
53207;SDS011;39093;52.788;6.940;2024-01-06T09:57:57;24.63;;;19.67;;
53207;SDS011;39093;52.788;6.940;2024-01-06T10:00:27;25.85;;;20.05;;
53207;SDS011;39093;52.788;6.940;2024-01-06T10:02:58;23.25;;;18.52;;
53207;SDS011;39093;52.788;6.940;2024-01-06T10:05:25;22.95;;;19.00;;
53207;SDS011;39093;52.788;6.940;2024-01-06T10:07:52;25.58;;;21.33;;
53207;SDS011;39093;52.788;6.940;2024-01-06T10:10:19;23.00;;;19.70;;
53207;SDS011;39093;52.788;6.940;2024-01-06T10:12:46;24.27;;;20.58;;
53207;SDS011;39093;52.788;6.940;2024-01-06T10:15:13;28.85;;;21.08;;
53207;SDS011;39093;52.788;6.940;2024-01-06T10:17:40;25.33;;;19.83;;
53207;SDS011;39093;52.788;6.940;2024-01-06T10:20:09;25.77;;;21.02;;
53207;SDS011;39093;52.788;6.940;2024-01-06T10:22:37;25.33;;;21.33;;
53207;SDS011;39093;52.788;6.940;2024-01-06T10:25:10;25.83;;;20.42;;
53207;SDS011;39093;52.788;6.940;2024-01-06T10:27:37;25.77;;;19.70;;
53207;SDS011;39093;52.788;6.940;2024-01-06T10:30:06;28.08;;;21.45;;
53207;SDS011;39093;52.788;6.940;2024-01-06T10:32:35;26.88;;;21.27;;
53207;SDS011;39093;52.788;6.940;2024-01-06T10:35:03;27.20;;;20.77;;
53207;SDS011;39093;52.788;6.940;2024-01-06T10:37:32;26.48;;;19.85;;
53207;SDS011;39093;52.788;6.940;2024-01-06T10:42:37;26.67;;;20.10;;
53207;SDS011;39093;52.788;6.940;2024-01-06T10:45:10;26.58;;;21.67;;
53207;SDS011;39093;52.788;6.940;2024-01-06T10:47:39;26.42;;;20.48;;
53207;SDS011;39093;52.788;6.940;2024-01-06T10:50:09;25.77;;;19.50;;
53207;SDS011;39093;52.788;6.940;2024-01-06T10:52:37;26.83;;;20.75;;
53207;SDS011;39093;52.788;6.940;2024-01-06T10:55:05;27.33;;;19.95;;
53207;SDS011;39093;52.788;6.940;2024-01-06T10:57:32;26.42;;;19.40;;
53207;SDS011;39093;52.788;6.940;2024-01-06T11:00:01;24.00;;;19.05;;
53207;SDS011;39093;52.788;6.940;2024-01-06T11:02:28;27.95;;;21.50;;
53207;SDS011;39093;52.788;6.940;2024-01-06T11:04:57;24.63;;;20.52;;
53207;SDS011;39093;52.788;6.940;2024-01-06T11:07:24;25.05;;;19.55;;
53207;SDS011;39093;52.788;6.940;2024-01-06T11:09:55;24.30;;;19.27;;
53207;SDS011;39093;52.788;6.940;2024-01-06T11:12:29;25.60;;;20.52;;
53207;SDS011;39093;52.788;6.940;2024-01-06T11:14:57;26.60;;;21.38;;
53207;SDS011;39093;52.788;6.940;2024-01-06T11:20:29;24.80;;;19.20;;
53207;SDS011;39093;52.788;6.940;2024-01-06T11:23:16;25.05;;;19.55;;
53207;SDS011;39093;52.788;6.940;2024-01-06T11:25:45;26.00;;;20.95;;
53207;SDS011;39093;52.788;6.940;2024-01-06T11:28:12;25.92;;;20.45;;
53207;SDS011;39093;52.788;6.940;2024-01-06T11:30:40;26.83;;;20.60;;
53207;SDS011;39093;52.788;6.940;2024-01-06T11:33:08;26.17;;;19.73;;
53207;SDS011;39093;52.788;6.940;2024-01-06T11:35:37;25.20;;;19.77;;
53207;SDS011;39093;52.788;6.940;2024-01-06T11:38:06;24.42;;;19.35;;
53207;SDS011;39093;52.788;6.940;2024-01-06T11:40:34;27.88;;;19.35;;
53207;SDS011;39093;52.788;6.940;2024-01-06T11:43:06;23.63;;;18.17;;
53207;SDS011;39093;52.788;6.940;2024-01-06T11:45:35;25.10;;;19.13;;
53207;SDS011;39093;52.788;6.940;2024-01-06T11:48:10;26.45;;;18.92;;
53207;SDS011;39093;52.788;6.940;2024-01-06T11:50:40;24.70;;;18.13;;
53207;SDS011;39093;52.788;6.940;2024-01-06T11:53:08;26.77;;;20.33;;
53207;SDS011;39093;52.788;6.940;2024-01-06T11:55:38;26.10;;;19.90;;
53207;SDS011;39093;52.788;6.940;2024-01-06T11:58:06;25.98;;;19.13;;
53207;SDS011;39093;52.788;6.940;2024-01-06T12:00:34;27.38;;;20.50;;
53207;SDS011;39093;52.788;6.940;2024-01-06T12:03:06;28.50;;;20.17;;
53207;SDS011;39093;52.788;6.940;2024-01-06T12:05:33;26.25;;;19.83;;
53207;SDS011;39093;52.788;6.940;2024-01-06T12:08:01;26.17;;;20.50;;
53207;SDS011;39093;52.788;6.940;2024-01-06T12:10:31;25.90;;;19.38;;
53207;SDS011;39093;52.788;6.940;2024-01-06T12:15:30;27.67;;;20.58;;
53207;SDS011;39093;52.788;6.940;2024-01-06T12:18:01;25.55;;;19.75;;
53207;SDS011;39093;52.788;6.940;2024-01-06T12:20:29;27.83;;;19.65;;
53207;SDS011;39093;52.788;6.940;2024-01-06T12:22:57;29.83;;;19.98;;
53207;SDS011;39093;52.788;6.940;2024-01-06T12:25:27;30.33;;;21.73;;
53207;SDS011;39093;52.788;6.940;2024-01-06T12:27:55;28.15;;;20.65;;
53207;SDS011;39093;52.788;6.940;2024-01-06T12:30:22;26.75;;;20.92;;
53207;SDS011;39093;52.788;6.940;2024-01-06T12:32:53;26.38;;;19.70;;
53207;SDS011;39093;52.788;6.940;2024-01-06T12:35:20;27.05;;;19.80;;
53207;SDS011;39093;52.788;6.940;2024-01-06T12:37:49;26.15;;;19.90;;
53207;SDS011;39093;52.788;6.940;2024-01-06T12:40:17;28.02;;;19.77;;
53207;SDS011;39093;52.788;6.940;2024-01-06T12:42:46;30.48;;;20.35;;
53207;SDS011;39093;52.788;6.940;2024-01-06T12:45:13;27.35;;;20.70;;
53207;SDS011;39093;52.788;6.940;2024-01-06T12:47:43;26.27;;;20.38;;
53207;SDS011;39093;52.788;6.940;2024-01-06T12:50:10;27.38;;;20.60;;
53207;SDS011;39093;52.788;6.940;2024-01-06T12:52:37;25.98;;;19.95;;
53207;SDS011;39093;52.788;6.940;2024-01-06T12:55:06;24.67;;;18.83;;
53207;SDS011;39093;52.788;6.940;2024-01-06T12:57:34;24.92;;;19.75;;
53207;SDS011;39093;52.788;6.940;2024-01-06T13:00:02;24.65;;;18.92;;
53207;SDS011;39093;52.788;6.940;2024-01-06T13:02:30;29.42;;;22.00;;
53207;SDS011;39093;52.788;6.940;2024-01-06T13:04:56;26.42;;;19.67;;
53207;SDS011;39093;52.788;6.940;2024-01-06T13:07:24;25.40;;;19.55;;
53207;SDS011;39093;52.788;6.940;2024-01-06T13:09:51;27.50;;;20.75;;
53207;SDS011;39093;52.788;6.940;2024-01-06T13:12:19;25.67;;;19.30;;
53207;SDS011;39093;52.788;6.940;2024-01-06T13:14:46;26.08;;;19.33;;
53207;SDS011;39093;52.788;6.940;2024-01-06T13:17:14;25.42;;;19.40;;
53207;SDS011;39093;52.788;6.940;2024-01-06T13:19:41;24.60;;;18.70;;
53207;SDS011;39093;52.788;6.940;2024-01-06T13:22:08;20.98;;;17.25;;
53207;SDS011;39093;52.788;6.940;2024-01-06T13:24:35;22.20;;;17.55;;
53207;SDS011;39093;52.788;6.940;2024-01-06T13:27:02;21.95;;;17.90;;
53207;SDS011;39093;52.788;6.940;2024-01-06T13:29:31;31.88;;;19.83;;
53207;SDS011;39093;52.788;6.940;2024-01-06T13:31:58;25.13;;;19.88;;
53207;SDS011;39093;52.788;6.940;2024-01-06T13:34:26;24.20;;;18.55;;
53207;SDS011;39093;52.788;6.940;2024-01-06T13:36:53;27.95;;;20.40;;
53207;SDS011;39093;52.788;6.940;2024-01-06T13:39:23;23.42;;;19.33;;
53207;SDS011;39093;52.788;6.940;2024-01-06T13:41:50;26.67;;;19.58;;
53207;SDS011;39093;52.788;6.940;2024-01-06T13:44:17;26.77;;;20.17;;
53207;SDS011;39093;52.788;6.940;2024-01-06T13:46:45;28.45;;;20.77;;
53207;SDS011;39093;52.788;6.940;2024-01-06T13:49:12;27.88;;;20.40;;
53207;SDS011;39093;52.788;6.940;2024-01-06T13:51:40;27.67;;;19.27;;
53207;SDS011;39093;52.788;6.940;2024-01-06T13:54:07;26.45;;;19.92;;
53207;SDS011;39093;52.788;6.940;2024-01-06T13:56:35;27.15;;;20.20;;
53207;SDS011;39093;52.788;6.940;2024-01-06T13:59:06;25.30;;;19.60;;
53207;SDS011;39093;52.788;6.940;2024-01-06T14:01:32;26.77;;;19.77;;
53207;SDS011;39093;52.788;6.940;2024-01-06T14:04:00;27.58;;;20.48;;
53207;SDS011;39093;52.788;6.940;2024-01-06T14:06:27;26.42;;;19.70;;
53207;SDS011;39093;52.788;6.940;2024-01-06T14:08:57;24.10;;;18.55;;
53207;SDS011;39093;52.788;6.940;2024-01-06T14:11:28;27.40;;;20.33;;
53207;SDS011;39093;52.788;6.940;2024-01-06T14:13:57;27.70;;;21.48;;
53207;SDS011;39093;52.788;6.940;2024-01-06T14:16:24;27.40;;;19.98;;
53207;SDS011;39093;52.788;6.940;2024-01-06T14:18:52;28.58;;;21.63;;
53207;SDS011;39093;52.788;6.940;2024-01-06T14:21:19;28.52;;;20.80;;
53207;SDS011;39093;52.788;6.940;2024-01-06T14:23:46;28.25;;;20.15;;
53207;SDS011;39093;52.788;6.940;2024-01-06T14:26:18;27.45;;;20.33;;
53207;SDS011;39093;52.788;6.940;2024-01-06T14:28:50;29.50;;;21.90;;
53207;SDS011;39093;52.788;6.940;2024-01-06T14:31:17;30.63;;;21.35;;